Time;durP1;ratioP1;P1;durP2;ratioP2;P2;SDS_P1;SDS_P2;PMS_P1;PMS_P2;Temp;Humidity;BMP_temperature;BMP_pressure;BME280_temperature;BME280_humidity;BME280_pressure;Samples;Min_cycle;Max_cycle;Signal;HPM_P1;HPM_P2
2022/06/30 00:00:57;;;;;;;10.18;9.18;;;;;;;20.59;92.31;99762.30;1729134;82;21018;-79
2022/06/30 00:03:24;;;;;;;9.88;8.90;;;;;;;20.57;92.76;99767.58;1767748;81;21047;-79
2022/06/30 00:05:51;;;;;;;9.48;8.60;;;;;;;20.60;92.80;99766.63;1773072;80;21056;-76
2022/06/30 00:08:18;;;;;;;10.63;9.73;;;;;;;20.67;92.55;99760.28;1763640;80;21042;-78
2022/06/30 00:10:44;;;;;;;11.00;10.00;;;;;;;20.65;92.62;99767.80;1761850;79;21619;-78
2022/06/30 00:13:12;;;;;;;11.12;10.13;;;;;;;20.60;92.67;99775.26;1762302;79;21037;-79
2022/06/30 00:15:40;;;;;;;11.43;10.30;;;;;;;20.65;92.69;99774.55;1760693;79;21011;-79
2022/06/30 00:18:06;;;;;;;11.43;10.30;;;;;;;20.69;92.59;99773.05;1756216;79;21478;-76
2022/06/30 00:20:32;;;;;;;11.97;9.95;;;;;;;20.66;92.80;99776.20;1761787;80;21532;-80
2022/06/30 00:22:59;;;;;;;10.50;9.45;;;;;;;20.66;92.70;99778.91;1770835;79;21087;-77
2022/06/30 00:25:26;;;;;;;10.82;9.78;;;;;;;20.68;92.68;99788.94;1755235;81;21462;-77
2022/06/30 00:27:52;;;;;;;9.73;8.50;;;;;;;20.67;92.60;99789.98;1782763;79;20951;-78
2022/06/30 00:30:20;;;;;;;9.70;8.80;;;;;;;20.57;92.59;99789.17;1785240;79;21007;-80
2022/06/30 00:32:46;;;;;;;10.10;9.20;;;;;;;20.56;92.62;99796.45;1780036;79;20970;-81
2022/06/30 00:35:13;;;;;;;10.90;9.80;;;;;;;20.54;92.64;99805.84;1757758;80;21263;-79
2022/06/30 00:37:39;;;;;;;11.88;9.05;;;;;;;20.46;92.82;99803.49;1754729;79;21100;-79
2022/06/30 00:40:07;;;;;;;9.75;8.88;;;;;;;20.41;93.01;99800.12;1750260;79;21491;-80
2022/06/30 00:42:34;;;;;;;10.98;9.93;;;;;;;20.40;92.78;99800.66;1765401;79;21020;-78
2022/06/30 00:45:00;;;;;;;14.60;10.18;;;;;;;20.31;92.88;99806.61;1764305;79;20979;-78
2022/06/30 00:47:27;;;;;;;10.35;9.25;;;;;;;20.16;93.23;99811.89;1783463;80;20989;-80
2022/06/30 00:49:54;;;;;;;10.18;9.28;;;;;;;20.14;93.47;99817.22;1759165;80;21497;-79
2022/06/30 00:52:21;;;;;;;10.45;9.55;;;;;;;20.17;93.43;99818.13;1800282;78;21006;-78
2022/06/30 00:54:47;;;;;;;11.75;9.73;;;;;;;20.15;93.40;99808.09;1777683;79;21068;-78
2022/06/30 00:57:14;;;;;;;10.45;9.08;;;;;;;20.07;93.48;99798.45;1784404;78;21036;-77
2022/06/30 00:59:40;;;;;;;10.10;9.10;;;;;;;20.08;93.65;99795.22;1789970;80;21735;-75
2022/06/30 01:02:07;;;;;;;10.23;9.20;;;;;;;20.10;93.64;99792.58;1756466;80;21041;-77
2022/06/30 01:04:34;;;;;;;11.12;9.38;;;;;;;20.06;93.78;99786.01;1779466;80;21056;-76
2022/06/30 01:07:01;;;;;;;10.70;8.58;;;;;;;20.01;93.87;99787.21;1793583;78;21045;-79
2022/06/30 01:15:01;;;;;;;10.35;9.25;;;;;;;20.00;93.61;99781.54;1788062;80;21507;-76
2022/06/30 01:17:29;;;;;;;9.58;8.65;;;;;;;20.00;93.52;99785.58;1778050;78;21069;-79
2022/06/30 01:19:56;;;;;;;10.05;9.13;;;;;;;20.04;93.32;99784.07;1781733;80;20969;-80
2022/06/30 01:22:22;;;;;;;10.30;9.25;;;;;;;20.00;93.23;99778.84;1773152;79;21057;-78
2022/06/30 01:24:49;;;;;;;10.23;9.33;;;;;;;19.92;93.31;99779.17;1782233;80;21286;-80
2022/06/30 01:27:15;;;;;;;9.50;8.60;;;;;;;19.92;93.12;99786.73;1776573;79;21034;-79
2022/06/30 01:29:42;;;;;;;10.80;8.88;;;;;;;19.97;92.97;99785.52;1797981;80;20932;-79
2022/06/30 01:32:09;;;;;;;9.78;8.83;;;;;;;19.95;92.88;99786.78;1772333;80;20990;-79
2022/06/30 01:34:35;;;;;;;10.40;9.40;;;;;;;19.92;92.77;99783.22;1778472;80;21026;-80
2022/06/30 01:37:01;;;;;;;10.58;9.50;;;;;;;19.97;92.48;99788.72;1792719;78;21188;-80
2022/06/30 01:39:28;;;;;;;10.38;9.40;;;;;;;19.93;92.38;99788.35;1782187;78;21077;-80
2022/06/30 01:41:55;;;;;;;11.28;10.18;;;;;;;19.86;92.42;99780.91;1766972;80;21074;-80
2022/06/30 01:44:22;;;;;;;11.45;10.43;;;;;;;19.86;92.43;99776.02;1792357;80;21032;-81
2022/06/30 01:46:49;;;;;;;10.90;9.90;;;;;;;19.87;92.43;99780.37;1806203;78;21563;-79
2022/06/30 01:49:15;;;;;;;13.58;11.83;;;;;;;19.82;92.62;99772.45;1776413;79;21083;-81
2022/06/30 01:51:42;;;;;;;10.93;9.93;;;;;;;19.74;92.86;99774.11;1777410;79;21019;-78
2022/06/30 01:54:11;;;;;;;12.03;10.93;;;;;;;19.75;92.96;99781.13;1786423;80;21021;-79
2022/06/30 01:56:38;;;;;;;11.93;10.90;;;;;;;19.80;92.89;99789.38;1770835;79;21501;-79
2022/06/30 01:59:05;;;;;;;11.95;10.75;;;;;;;19.78;92.88;99789.28;1785901;78;21084;-79
2022/06/30 02:01:32;;;;;;;12.10;11.00;;;;;;;19.72;93.38;99783.45;1777608;80;21104;-80
2022/06/30 02:04:46;;;;;;;11.90;10.70;;;;;;;19.73;93.15;99777.84;1783481;78;21036;-79
2022/06/30 02:06:27;;;;;;;11.78;10.78;;;;;;;19.75;93.11;99777.09;1763466;80;21047;-77
2022/06/30 02:08:54;;;;;;;12.65;11.38;;;;;;;19.71;93.32;99771.02;1789642;78;21019;-77
2022/06/30 02:11:21;;;;;;;10.60;9.43;;;;;;;19.63;93.47;99776.20;1770770;79;21541;-77
2022/06/30 02:13:47;;;;;;;10.70;9.68;;;;;;;19.64;93.28;99775.97;1775629;80;21054;-77
2022/06/30 02:16:14;;;;;;;11.30;10.15;;;;;;;19.63;93.01;99777.55;1794050;78;21069;-78
2022/06/30 02:18:40;;;;;;;10.98;9.88;;;;;;;19.57;93.14;99782.49;1787477;80;20980;-76
2022/06/30 02:21:07;;;;;;;10.63;9.58;;;;;;;19.55;93.14;99784.06;1771558;78;21532;-78
2022/06/30 02:23:34;;;;;;;12.40;10.38;;;;;;;19.60;92.94;99781.48;1775688;80;21043;-76
2022/06/30 02:26:00;;;;;;;11.22;10.15;;;;;;;19.58;92.88;99780.89;1780742;78;21165;-79
2022/06/30 02:28:26;;;;;;;11.10;9.48;;;;;;;19.54;92.94;99785.63;1779570;80;21058;-76
2022/06/30 02:30:53;;;;;;;10.93;9.73;;;;;;;19.56;92.89;99784.88;1771421;80;21039;-77
2022/06/30 02:33:19;;;;;;;10.53;9.50;;;;;;;19.61;92.88;99793.12;1807606;78;21061;-76
2022/06/30 02:35:46;;;;;;;10.40;9.50;;;;;;;19.59;92.92;99796.03;1763568;80;21013;-78
2022/06/30 02:38:12;;;;;;;10.13;9.23;;;;;;;19.58;92.98;99804.33;1761421;80;21928;-80
2022/06/30 02:40:39;;;;;;;10.32;9.33;;;;;;;19.59;92.81;99801.95;1784928;80;21517;-76
2022/06/30 02:43:05;;;;;;;10.28;9.38;;;;;;;19.64;92.92;99798.03;1780919;78;21044;-79
2022/06/30 02:45:32;;;;;;;10.72;9.73;;;;;;;19.61;92.65;99802.02;1758674;80;21067;-76
2022/06/30 02:47:59;;;;;;;10.08;9.15;;;;;;;19.56;92.74;99791.61;1773804;79;21032;-74
2022/06/30 02:50:25;;;;;;;9.65;8.65;;;;;;;19.58;92.73;99793.02;1777221;80;21276;-76
2022/06/30 02:52:52;;;;;;;9.70;8.83;;;;;;;19.65;92.50;99799.16;1772303;80;20981;-76
2022/06/30 02:55:18;;;;;;;10.63;9.08;;;;;;;19.66;92.54;99793.23;1785552;79;21070;-75
2022/06/30 02:57:45;;;;;;;9.83;9.00;;;;;;;19.65;92.55;99794.30;1768260;79;21290;-74
2022/06/30 03:00:12;;;;;;;9.93;8.73;;;;;;;19.72;92.38;99800.98;1766665;78;21042;-76
2022/06/30 03:02:39;;;;;;;11.60;9.43;;;;;;;19.81;92.23;99808.52;1771819;79;21618;-77
2022/06/30 03:05:09;;;;;;;9.58;8.68;;;;;;;19.80;92.30;99806.08;1768994;78;21050;-77
2022/06/30 03:07:35;;;;;;;10.48;9.45;;;;;;;19.80;92.61;99800.16;1773177;78;21083;-76
2022/06/30 03:10:03;;;;;;;9.60;8.80;;;;;;;19.88;92.35;99802.25;1772823;79;21097;-77
2022/06/30 03:12:31;;;;;;;11.03;9.48;;;;;;;19.96;92.10;99805.44;1764715;79;21030;-75
2022/06/30 03:14:57;;;;;;;10.53;9.55;;;;;;;19.96;91.95;99797.88;1784400;79;21310;-76
2022/06/30 03:17:24;;;;;;;10.18;9.23;;;;;;;19.95;92.23;99803.80;1768809;80;21021;-77
2022/06/30 03:19:51;;;;;;;10.13;9.23;;;;;;;20.04;92.10;99801.59;1766506;79;21525;-76
2022/06/30 03:22:18;;;;;;;9.90;9.03;;;;;;;20.13;92.01;99796.72;1777385;80;20989;-78
2022/06/30 03:24:44;;;;;;;9.93;9.03;;;;;;;20.14;91.79;99793.77;1776768;80;21005;-75
2022/06/30 03:27:11;;;;;;;9.83;8.93;;;;;;;20.12;91.82;99801.27;1767394;80;21459;-77
2022/06/30 03:29:37;;;;;;;11.15;10.05;;;;;;;20.19;91.61;99799.30;1747647;82;21029;-75
2022/06/30 03:32:04;;;;;;;12.90;11.80;;;;;;;20.28;91.43;99801.67;1771674;80;21003;-76
2022/06/30 03:34:31;;;;;;;10.20;9.13;;;;;;;20.29;91.69;99808.72;1776075;80;21104;-76
2022/06/30 03:36:57;;;;;;;10.32;9.40;;;;;;;20.32;91.60;99814.98;1779104;79;21069;-76
2022/06/30 03:39:23;;;;;;;10.00;9.18;;;;;;;20.37;90.80;99816.48;1764816;78;21095;-76
2022/06/30 03:41:50;;;;;;;10.48;9.45;;;;;;;20.32;90.79;99819.03;1761773;78;21014;-78
2022/06/30 03:44:16;;;;;;;11.53;9.55;;;;;;;20.29;90.87;99820.86;1762776;79;21084;-76
2022/06/30 03:46:43;;;;;;;11.40;8.78;;;;;;;20.32;91.06;99816.33;1767641;79;21030;-82
2022/06/30 03:49:09;;;;;;;9.90;8.90;;;;;;;20.41;91.19;99810.91;1758238;79;21009;-83
2022/06/30 03:51:36;;;;;;;10.18;9.18;;;;;;;20.46;91.20;99817.80;1761752;79;21236;-80
2022/06/30 03:54:02;;;;;;;8.65;7.85;;;;;;;20.50;90.90;99816.28;1760474;79;21112;-81
2022/06/30 03:56:29;;;;;;;9.25;8.35;;;;;;;20.59;90.47;99818.97;1740763;80;21104;-79
2022/06/30 03:58:55;;;;;;;10.68;9.53;;;;;;;20.73;89.88;99818.77;1780026;78;21102;-81
2022/06/30 04:01:22;;;;;;;9.63;8.83;;;;;;;20.77;89.78;99818.59;1766916;78;21014;-81
2022/06/30 04:03:48;;;;;;;9.75;8.70;;;;;;;20.74;89.60;99817.16;1775933;79;21224;-78
2022/06/30 04:06:14;;;;;;;9.63;8.63;;;;;;;20.80;90.00;99819.45;1765509;79;21096;-80
2022/06/30 04:08:41;;;;;;;10.50;9.35;;;;;;;20.93;89.77;99820.58;1785363;78;21025;-81
2022/06/30 04:11:09;;;;;;;10.00;8.55;;;;;;;20.94;90.24;99821.42;1787955;80;21610;-81
2022/06/30 04:13:37;;;;;;;9.73;8.73;;;;;;;20.94;90.52;99819.53;1762121;79;21072;-80
2022/06/30 04:16:05;;;;;;;9.93;9.03;;;;;;;21.03;89.59;99817.29;1767724;78;21246;-81
2022/06/30 04:18:31;;;;;;;9.43;8.45;;;;;;;21.11;89.80;99810.72;1785398;79;21037;-80
2022/06/30 04:20:58;;;;;;;8.80;8.10;;;;;;;21.18;89.26;99816.83;1774147;79;21061;-80
2022/06/30 04:23:25;;;;;;;9.50;8.60;;;;;;;21.18;88.54;99819.53;1745724;80;21036;-79
2022/06/30 04:25:52;;;;;;;8.33;7.58;;;;;;;21.26;88.04;99825.09;1771361;80;21097;-82
2022/06/30 04:28:19;;;;;;;14.05;8.70;;;;;;;21.36;87.25;99824.81;1785138;80;21286;-79
2022/06/30 04:33:30;;;;;;;8.50;7.70;;;;;;;21.53;88.18;99824.09;1767264;79;21045;-80
2022/06/30 04:35:57;;;;;;;9.68;8.70;;;;;;;21.75;87.76;99823.75;1785195;79;21014;-79
2022/06/30 04:38:23;;;;;;;8.00;7.35;;;;;;;21.88;87.95;99828.58;1771632;79;20994;-79
2022/06/30 04:43:35;;;;;;;6.92;6.22;;;;;;;22.09;85.55;99814.92;1770176;79;21043;-80
2022/06/30 04:46:03;;;;;;;7.28;6.58;;;;;;;22.20;83.79;99811.34;1776344;80;20971;-82
2022/06/30 04:48:30;;;;;;;8.03;7.22;;;;;;;22.23;83.19;99810.02;1776840;80;21057;-80
2022/06/30 04:50:56;;;;;;;7.65;6.08;;;;;;;22.29;82.85;99808.57;1768596;80;21012;-81
2022/06/30 04:53:23;;;;;;;8.18;6.62;;;;;;;22.45;82.87;99827.78;1766354;81;21626;-80
2022/06/30 04:55:49;;;;;;;7.22;6.42;;;;;;;22.60;82.08;99823.98;1778873;78;21072;-82
2022/06/30 04:58:16;;;;;;;6.20;5.60;;;;;;;22.65;81.43;99821.88;1791898;78;21010;-79
2022/06/30 05:00:42;;;;;;;6.75;6.17;;;;;;;22.68;79.86;99826.27;1770161;80;20977;-80
2022/06/30 05:03:09;;;;;;;5.97;5.50;;;;;;;22.69;79.45;99827.90;1789703;80;21048;-79
2022/06/30 05:05:35;;;;;;;6.10;5.55;;;;;;;22.77;78.55;99828.02;1797982;78;21721;-80
2022/06/30 05:08:02;;;;;;;6.58;5.92;;;;;;;22.84;77.49;99829.23;1783865;78;21539;-79
2022/06/30 05:10:28;;;;;;;6.90;6.30;;;;;;;22.78;76.97;99826.43;1773832;80;21032;-81
2022/06/30 05:12:55;;;;;;;6.28;5.62;;;;;;;22.74;77.04;99829.89;1786494;80;21008;-78
2022/06/30 05:15:22;;;;;;;6.37;5.33;;;;;;;22.71;76.52;99839.30;1762735;80;21101;-81
2022/06/30 05:17:49;;;;;;;6.53;5.92;;;;;;;22.78;75.92;99841.33;1784911;80;21130;-81
2022/06/30 05:20:16;;;;;;;6.33;5.83;;;;;;;22.80;75.52;99838.92;1762192;79;21078;-77
2022/06/30 05:22:42;;;;;;;7.85;6.65;;;;;;;22.70;75.60;99842.28;1791515;80;20988;-79
2022/06/30 05:27:53;;;;;;;7.53;6.92;;;;;;;22.92;78.44;99852.64;1792141;78;21036;-81
2022/06/30 05:30:20;;;;;;;8.75;7.50;;;;;;;23.21;78.83;99856.63;1799416;78;21496;-78
2022/06/30 05:32:46;;;;;;;8.75;7.58;;;;;;;23.32;78.46;99853.00;1782889;80;21013;-80
2022/06/30 05:35:14;;;;;;;8.00;7.30;;;;;;;23.40;78.92;99851.76;1772061;80;21001;-78
2022/06/30 05:37:41;;;;;;;7.87;7.17;;;;;;;23.45;77.98;99846.93;1789402;80;20994;-79
2022/06/30 05:40:08;;;;;;;7.87;7.17;;;;;;;23.52;77.05;99843.51;1755957;80;21038;-80
2022/06/30 05:42:35;;;;;;;9.13;7.40;;;;;;;23.56;76.74;99837.86;1778067;80;21150;-81
2022/06/30 05:45:01;;;;;;;8.33;7.62;;;;;;;23.52;76.99;99840.25;1790593;78;21090;-82
2022/06/30 05:47:28;;;;;;;8.50;7.80;;;;;;;23.47;76.44;99844.78;1782154;78;21024;-82
2022/06/30 05:49:54;;;;;;;8.40;7.58;;;;;;;23.40;75.84;99844.98;1787514;78;21052;-81
2022/06/30 05:52:21;;;;;;;10.28;9.38;;;;;;;23.39;75.72;99841.16;1794686;80;20949;-78
2022/06/30 05:54:47;;;;;;;12.10;8.80;;;;;;;23.35;76.03;99843.03;1781374;80;21430;-81
2022/06/30 05:57:14;;;;;;;9.45;8.55;;;;;;;23.32;76.27;99850.30;1779407;80;21556;-82
2022/06/30 05:59:40;;;;;;;9.15;8.45;;;;;;;23.33;77.77;99845.17;1777707;80;20997;-80
2022/06/30 06:02:07;;;;;;;10.65;9.08;;;;;;;23.43;77.15;99848.56;1771993;80;21500;-82
2022/06/30 06:04:34;;;;;;;9.50;8.53;;;;;;;23.52;76.99;99844.32;1751369;79;21104;-80
2022/06/30 06:07:02;;;;;;;10.35;9.45;;;;;;;23.56;77.03;99844.64;1763873;79;21252;-83
2022/06/30 06:09:30;;;;;;;8.83;8.03;;;;;;;23.60;77.09;99847.13;1772178;80;21036;-84
2022/06/30 06:11:57;;;;;;;10.00;9.00;;;;;;;23.66;76.33;99846.16;1774092;80;21032;-81
2022/06/30 06:14:24;;;;;;;9.55;8.45;;;;;;;23.75;75.90;99839.73;1772564;80;21024;-83
2022/06/30 06:16:50;;;;;;;10.43;8.30;;;;;;;23.79;75.40;99842.25;1748802;80;21025;-82
2022/06/30 06:19:16;;;;;;;8.68;7.95;;;;;;;23.80;75.40;99845.27;1783754;80;21228;-81
2022/06/30 06:21:45;;;;;;;7.60;6.90;;;;;;;23.84;75.12;99836.89;1765949;80;21965;-82
2022/06/30 06:24:11;;;;;;;8.45;7.62;;;;;;;23.89;74.91;99833.41;1765069;80;21623;-83
2022/06/30 06:26:38;;;;;;;6.85;6.25;;;;;;;24.00;73.93;99835.72;1782353;78;21091;-83
2022/06/30 06:29:08;;;;;;;6.60;6.10;;;;;;;24.07;72.50;99837.16;1760644;79;21025;-82
2022/06/30 06:31:37;;;;;;;6.25;5.75;;;;;;;24.07;72.22;99839.88;1784774;78;21528;-83
2022/06/30 06:34:05;;;;;;;6.00;5.50;;;;;;;24.10;71.75;99834.46;1774327;79;21041;-81
2022/06/30 06:36:32;;;;;;;6.08;5.50;;;;;;;24.10;70.84;99838.53;1765994;80;21497;-80
2022/06/30 06:38:59;;;;;;;6.83;5.92;;;;;;;24.07;70.41;99841.22;1791081;80;21524;-81
2022/06/30 06:41:25;;;;;;;5.90;5.33;;;;;;;24.06;70.93;99837.41;1797004;78;21518;-80
2022/06/30 06:43:52;;;;;;;6.65;6.15;;;;;;;24.14;70.94;99835.59;1781415;80;22497;-81
2022/06/30 06:46:19;;;;;;;6.42;5.80;;;;;;;24.25;71.00;99835.98;1788584;78;20996;-80
2022/06/30 06:48:46;;;;;;;7.60;6.90;;;;;;;24.29;71.63;99836.28;1789889;78;21512;-82
2022/06/30 06:51:12;;;;;;;6.92;6.33;;;;;;;24.32;71.10;99838.50;1754810;80;21051;-80
2022/06/30 06:53:38;;;;;;;6.47;5.97;;;;;;;24.38;71.54;99831.20;1775627;80;20981;-81
2022/06/30 06:56:06;;;;;;;6.22;5.62;;;;;;;24.42;71.33;99829.62;1787217;79;21232;-81
2022/06/30 06:58:33;;;;;;;6.97;5.95;;;;;;;24.52;71.55;99832.46;1764334;81;20987;-81
2022/06/30 07:04:10;;;;;;;7.15;5.92;;;;;;;24.66;70.55;99826.86;1854203;77;22746;-83
2022/06/30 07:06:37;;;;;;;5.87;5.28;;;;;;;24.64;69.88;99825.50;1788456;80;21084;-83
2022/06/30 07:09:03;;;;;;;5.67;5.17;;;;;;;24.67;69.86;99829.06;1768567;80;21078;-81
2022/06/30 07:11:30;;;;;;;7.75;5.28;;;;;;;24.68;68.71;99838.83;1787130;80;20980;-84
2022/06/30 07:13:56;;;;;;;6.47;5.97;;;;;;;24.67;67.09;99836.66;1748854;81;20942;-85
2022/06/30 07:16:23;;;;;;;5.97;5.47;;;;;;;24.65;67.56;99835.30;1790261;80;21037;-83
2022/06/30 07:18:49;;;;;;;5.90;5.30;;;;;;;24.62;67.66;99827.11;1784246;78;21100;-83
2022/06/30 07:21:17;;;;;;;5.83;5.30;;;;;;;24.65;68.74;99829.86;1766481;80;21246;-79
2022/06/30 07:23:44;;;;;;;5.70;5.20;;;;;;;24.79;68.41;99837.03;1770224;78;21061;-80
2022/06/30 07:26:11;;;;;;;6.08;5.53;;;;;;;24.85;67.96;99831.36;1776464;80;21002;-84
2022/06/30 07:28:41;;;;;;;5.58;5.08;;;;;;;24.89;68.57;99835.19;1768498;79;21026;-82
2022/06/30 07:31:09;;;;;;;6.28;5.78;;;;;;;24.95;67.59;99838.77;1724145;81;21041;-82
2022/06/30 07:33:35;;;;;;;6.05;5.55;;;;;;;25.02;67.12;99835.84;1780205;78;21132;-82
2022/06/30 07:36:04;;;;;;;6.08;5.47;;;;;;;25.04;66.73;99838.56;1783753;78;21047;-82
2022/06/30 07:38:30;;;;;;;6.45;5.95;;;;;;;25.06;66.76;99845.11;1768994;80;21037;-84
2022/06/30 07:40:57;;;;;;;6.35;5.80;;;;;;;25.11;66.59;99850.05;1756464;81;21045;-84
2022/06/30 07:43:24;;;;;;;5.60;5.20;;;;;;;25.18;66.62;99845.72;1780424;80;21045;-83
2022/06/30 07:45:51;;;;;;;6.42;5.87;;;;;;;25.23;66.81;99846.34;1722915;81;21169;-82
2022/06/30 07:48:18;;;;;;;5.70;5.10;;;;;;;25.34;66.28;99851.28;1783697;80;21446;-84
2022/06/30 07:50:45;;;;;;;6.85;6.25;;;;;;;25.50;65.37;99854.38;1755092;81;21044;-82
2022/06/30 07:53:11;;;;;;;6.30;5.62;;;;;;;25.56;65.22;99845.16;1776756;80;21026;-82
2022/06/30 07:55:38;;;;;;;7.37;6.67;;;;;;;25.62;65.12;99839.20;1755212;81;21566;-82
2022/06/30 07:58:08;;;;;;;6.70;6.20;;;;;;;25.66;65.54;99835.67;1779409;80;21097;-85
2022/06/30 08:00:35;;;;;;;7.08;6.55;;;;;;;25.66;65.44;99832.14;1738974;80;21068;-80
2022/06/30 08:03:02;;;;;;;6.53;5.97;;;;;;;25.67;65.96;99830.52;1781648;80;21038;-78
2022/06/30 08:05:29;;;;;;;7.50;6.90;;;;;;;25.67;65.16;99833.24;1749666;81;21609;-83
2022/06/30 08:07:56;;;;;;;7.03;6.50;;;;;;;25.66;64.88;99841.66;1748394;81;21045;-83
2022/06/30 08:10:23;;;;;;;7.62;6.28;;;;;;;25.64;65.84;99835.13;1755898;81;21166;-82
2022/06/30 08:12:50;;;;;;;6.37;5.87;;;;;;;25.67;65.78;99830.52;1755019;81;21018;-80
2022/06/30 08:15:18;;;;;;;7.20;6.50;;;;;;;25.70;64.39;99833.24;1750045;80;20999;-83
2022/06/30 08:17:45;;;;;;;6.72;6.12;;;;;;;25.68;64.14;99828.06;1749363;81;21057;-82
2022/06/30 08:20:12;;;;;;;6.70;6.10;;;;;;;25.69;64.82;99835.67;1745467;81;21041;-88
2022/06/30 08:22:38;;;;;;;8.15;7.22;;;;;;;25.72;65.11;99823.45;1757556;81;21080;-81
2022/06/30 08:25:06;;;;;;;7.58;6.92;;;;;;;25.77;65.52;99820.73;1744840;80;21592;-82
2022/06/30 08:27:33;;;;;;;7.08;6.50;;;;;;;25.92;66.23;99827.63;1755330;81;21078;-79
2022/06/30 08:30:00;;;;;;;7.97;6.97;;;;;;;26.10;65.93;99826.33;1755499;80;21002;-83
2022/06/30 08:32:27;;;;;;;8.08;7.45;;;;;;;26.19;65.62;99820.64;1745480;81;21023;-83
2022/06/30 08:34:53;;;;;;;8.75;8.03;;;;;;;26.28;65.87;99829.08;1742259;81;21257;-81
2022/06/30 08:37:19;;;;;;;7.80;7.10;;;;;;;26.37;65.87;99825.29;1741298;81;21018;-81
2022/06/30 08:42:32;;;;;;;7.08;6.45;;;;;;;26.47;64.29;99827.45;1743980;81;21096;-81
2022/06/30 08:45:17;;;;;;;7.00;6.50;;;;;;;26.52;63.33;99823.09;1743895;81;21014;-81
2022/06/30 08:47:46;;;;;;;5.97;5.47;;;;;;;26.54;63.22;99828.57;1759028;80;21088;-82
2022/06/30 08:50:15;;;;;;;8.95;6.53;;;;;;;26.62;62.68;99835.41;1740968;81;21085;-81
2022/06/30 08:52:54;;;;;;;6.72;6.10;;;;;;;26.68;62.55;99834.31;1747330;81;21520;-77
2022/06/30 08:55:27;;;;;;;7.22;6.53;;;;;;;26.76;62.38;99831.59;1742618;81;21089;-81
2022/06/30 08:58:00;;;;;;;6.60;6.10;;;;;;;26.84;62.80;99838.66;1745841;81;21565;-81
2022/06/30 09:00:27;;;;;;;7.70;7.00;;;;;;;26.93;61.02;99832.67;1744236;81;21123;-80
2022/06/30 09:02:54;;;;;;;6.92;6.33;;;;;;;26.92;61.77;99838.65;1742347;80;21001;-80
2022/06/30 09:05:20;;;;;;;7.25;6.70;;;;;;;26.97;60.77;99837.84;1721053;83;21118;-80
2022/06/30 09:07:47;;;;;;;6.97;6.45;;;;;;;26.98;61.66;99838.10;1755241;80;21036;-80
2022/06/30 09:10:14;;;;;;;6.97;6.47;;;;;;;27.05;62.37;99839.45;1725364;81;21010;-79
2022/06/30 09:12:41;;;;;;;6.65;6.15;;;;;;;27.17;61.81;99836.42;1733983;81;21280;-78
2022/06/30 09:15:09;;;;;;;8.58;7.87;;;;;;;27.31;60.82;99829.06;1742734;80;21060;-80
2022/06/30 09:17:37;;;;;;;7.42;6.70;;;;;;;27.41;60.09;99844.87;1724896;83;21068;-80
2022/06/30 09:20:08;;;;;;;7.87;7.28;;;;;;;27.50;60.94;99842.92;1717400;81;21078;-79
2022/06/30 09:22:39;;;;;;;7.75;7.05;;;;;;;27.62;61.71;99836.06;1757995;80;21569;-80
2022/06/30 09:25:14;;;;;;;7.87;7.17;;;;;;;27.89;60.69;99837.59;1751797;80;21041;-80
2022/06/30 09:27:43;;;;;;;6.72;6.12;;;;;;;28.22;61.00;99833.33;1717895;83;21014;-79
2022/06/30 09:30:13;;;;;;;6.25;5.65;;;;;;;28.64;59.65;99828.39;1727843;81;21556;-79
2022/06/30 09:32:56;;;;;;;5.62;5.12;;;;;;;29.14;57.86;99829.04;1757897;80;21061;-78
2022/06/30 09:35:27;;;;;;;5.70;5.17;;;;;;;29.66;56.31;99828.47;1732165;82;21498;-78
2022/06/30 09:38:07;;;;;;;5.78;5.30;;;;;;;30.10;51.48;99824.62;1751638;80;21762;-77
2022/06/30 09:43:34;;;;;;;6.25;5.75;;;;;;;30.64;51.98;99820.51;1738330;81;21040;-79
2022/06/30 09:46:02;;;;;;;6.10;5.50;;;;;;;31.04;50.82;99823.68;1719812;82;21058;-78
2022/06/30 09:48:32;;;;;;;7.70;6.85;;;;;;;31.42;51.62;99824.05;1786682;79;21029;-79
2022/06/30 09:51:00;;;;;;;6.85;6.22;;;;;;;31.76;51.19;99819.52;1754491;80;21125;-78
2022/06/30 09:53:27;;;;;;;6.50;6.00;;;;;;;32.06;50.91;99817.23;1771983;80;21679;-80
2022/06/30 09:55:53;;;;;;;6.50;5.90;;;;;;;32.39;50.32;99809.57;1770118;80;21025;-77
2022/06/30 09:58:35;;;;;;;6.03;5.42;;;;;;;32.83;50.36;99809.31;1757585;80;20993;-79
2022/06/30 10:01:01;;;;;;;6.72;6.22;;;;;;;33.27;50.47;99809.55;1783233;80;21024;-77
2022/06/30 10:03:29;;;;;;;6.28;5.78;;;;;;;33.76;48.24;99805.41;1770232;79;22160;-81
2022/06/30 10:06:10;;;;;;;6.90;6.40;;;;;;;34.14;46.72;99804.80;1764742;80;21021;-75
2022/06/30 10:08:38;;;;;;;6.83;6.25;;;;;;;34.40;46.65;99804.23;1768052;80;21054;-77
2022/06/30 10:11:05;;;;;;;6.55;5.95;;;;;;;34.39;46.67;99804.56;1761394;80;21017;-79
2022/06/30 10:13:37;;;;;;;7.40;6.70;;;;;;;34.52;46.13;99799.98;1752745;80;21033;-79
2022/06/30 10:16:06;;;;;;;6.55;6.12;;;;;;;34.62;47.38;99802.41;1759330;80;21861;-77
2022/06/30 10:18:37;;;;;;;6.75;5.97;;;;;;;34.76;45.38;99807.76;1782141;80;20995;-78
2022/06/30 10:21:04;;;;;;;6.28;5.78;;;;;;;34.83;44.65;99803.36;1767749;80;21529;-79
2022/06/30 10:23:31;;;;;;;7.10;6.50;;;;;;;35.00;45.23;99799.73;1756620;80;21579;-78
2022/06/30 10:25:58;;;;;;;6.83;5.83;;;;;;;35.15;45.02;99806.62;1760176;80;21061;-81
2022/06/30 10:28:27;;;;;;;6.62;6.12;;;;;;;35.14;44.27;99802.84;1753960;80;21236;-78
2022/06/30 10:31:20;;;;;;;5.85;5.45;;;;;;;35.02;44.69;99801.59;1776035;80;21009;-78
2022/06/30 10:34:12;;;;;;;6.30;5.75;;;;;;;34.83;44.60;99799.80;1751788;80;20985;-79
2022/06/30 10:36:47;;;;;;;6.08;5.65;;;;;;;34.79;45.83;99808.47;1766809;80;21033;-78
2022/06/30 10:39:45;;;;;;;6.03;5.62;;;;;;;34.82;44.82;99798.96;1756689;80;21052;-76
2022/06/30 10:42:46;;;;;;;6.28;5.78;;;;;;;34.98;46.14;99803.39;1765438;80;21218;-76
2022/06/30 10:45:33;;;;;;;5.80;5.40;;;;;;;35.33;45.24;99803.27;1760450;80;21010;-75
2022/06/30 10:48:05;;;;;;;5.75;5.25;;;;;;;35.74;43.91;99790.69;1753099;80;22087;-76
2022/06/30 10:50:39;;;;;;;6.80;6.30;;;;;;;36.08;43.55;99797.66;1763503;80;21323;-79
2022/06/30 10:53:08;;;;;;;5.97;5.50;;;;;;;36.21;43.37;99791.87;1765324;80;21017;-78
2022/06/30 10:55:55;;;;;;;6.28;5.78;;;;;;;36.19;43.71;99794.16;1758747;80;21159;-77
2022/06/30 10:58:22;;;;;;;6.08;5.67;;;;;;;36.27;43.33;99784.17;1754081;80;20977;-80
2022/06/30 11:01:08;;;;;;;6.47;6.03;;;;;;;36.26;42.34;99787.27;1757166;80;21034;-77
2022/06/30 11:03:40;;;;;;;6.58;6.00;;;;;;;36.27;42.72;99791.08;1739882;78;21018;-78
2022/06/30 11:06:12;;;;;;;6.15;5.75;;;;;;;36.54;43.85;99788.88;1798323;78;21099;-79
2022/06/30 11:08:49;;;;;;;6.00;5.60;;;;;;;36.71;42.68;99785.95;1802169;78;21076;-79
2022/06/30 11:11:28;;;;;;;6.35;5.75;;;;;;;36.82;42.21;99784.94;1809337;78;21550;-78
2022/06/30 11:14:07;;;;;;;6.58;6.08;;;;;;;36.87;41.88;99793.00;1790500;78;21001;-78
2022/06/30 11:16:37;;;;;;;5.95;5.45;;;;;;;36.99;41.75;99782.51;1805965;78;21017;-78
2022/06/30 11:19:12;;;;;;;6.42;5.87;;;;;;;37.31;41.31;99783.59;1806033;78;21104;-76
2022/06/30 11:21:44;;;;;;;6.40;5.87;;;;;;;37.45;40.61;99781.04;1784453;78;23329;-78
2022/06/30 11:24:11;;;;;;;6.25;5.83;;;;;;;37.53;41.11;99778.71;1793281;78;21504;-76
2022/06/30 11:29:28;;;;;;;7.00;6.03;;;;;;;37.27;40.34;99784.06;1794825;78;21042;-77
2022/06/30 11:31:59;;;;;;;6.50;6.00;;;;;;;37.00;41.06;99781.38;1794990;78;21021;-79
2022/06/30 11:34:25;;;;;;;6.60;6.05;;;;;;;36.98;41.36;99780.33;1795992;78;21119;-76
2022/06/30 11:36:52;;;;;;;6.30;5.80;;;;;;;37.17;41.50;99779.80;1791514;78;21123;-78
2022/06/30 11:39:20;;;;;;;6.20;5.80;;;;;;;37.57;40.97;99779.63;1790431;78;21057;-78
2022/06/30 11:41:57;;;;;;;6.10;5.70;;;;;;;38.08;39.98;99779.22;1798704;77;21558;-77
2022/06/30 11:44:26;;;;;;;6.25;5.83;;;;;;;38.42;39.13;99778.34;1791575;77;21096;-77
2022/06/30 11:47:12;;;;;;;6.08;5.67;;;;;;;38.49;38.79;99777.16;1777919;78;21120;-77
2022/06/30 11:49:52;;;;;;;5.90;5.53;;;;;;;38.45;38.61;99765.97;1781422;78;21057;-78
2022/06/30 11:52:35;;;;;;;7.70;6.20;;;;;;;38.51;38.91;99765.13;1803982;78;21061;-76
2022/06/30 11:55:05;;;;;;;6.45;5.85;;;;;;;38.85;39.09;99765.05;1803285;78;21084;-79
2022/06/30 11:57:35;;;;;;;5.62;5.22;;;;;;;39.29;38.05;99764.94;1795714;78;21499;-78
2022/06/30 12:00:09;;;;;;;6.28;5.87;;;;;;;39.63;37.03;99759.75;1804901;78;21098;-76